Time;durP1;ratioP1;P1;durP2;ratioP2;P2;SDS_P1;SDS_P2;PMS_P1;PMS_P2;Temp;Humidity;BMP_temperature;BMP_pressure;BME280_temperature;BME280_humidity;BME280_pressure;Samples;Min_cycle;Max_cycle;Signal;HPM_P1;HPM_P2
2023/12/11 00:01:14;;;;;;;32.87;19.00;;;1.40;99.90;;;;;;9879376;30;20198;-82
2023/12/11 00:06:35;;;;;;;32.80;19.10;;;1.40;99.90;;;;;;9891410;30;20496;-81
2023/12/11 00:11:58;;;;;;;28.33;17.53;;;1.40;99.90;;;;;;9892162;30;20237;-81
2023/12/11 00:17:19;;;;;;;27.63;16.73;;;1.50;99.90;;;;;;9879041;30;20399;-82
2023/12/11 00:22:40;;;;;;;29.23;16.57;;;1.50;99.90;;;;;;9915492;30;20549;-82
2023/12/11 00:28:01;;;;;;;31.97;17.73;;;1.50;99.90;;;;;;9915032;30;20213;-81
2023/12/11 00:33:23;;;;;;;32.90;18.13;;;1.60;99.90;;;;;;9886742;30;20245;-80
2023/12/11 00:38:44;;;;;;;31.60;16.60;;;1.60;99.90;;;;;;9866083;30;20207;-80
2023/12/11 00:44:05;;;;;;;30.70;17.60;;;1.60;99.90;;;;;;9889169;30;20260;-80
2023/12/11 00:49:27;;;;;;;28.27;17.53;;;1.70;99.90;;;;;;9877829;30;20251;-79
2023/12/11 00:54:48;;;;;;;29.13;17.57;;;1.70;99.90;;;;;;9890026;30;20234;-79
2023/12/11 01:00:10;;;;;;;27.93;16.47;;;1.70;99.90;;;;;;9890511;30;20274;-79
2023/12/11 01:05:33;;;;;;;24.10;15.67;;;1.70;99.90;;;;;;9863654;30;20382;-79
2023/12/11 01:10:57;;;;;;;22.23;13.17;;;1.80;99.90;;;;;;9884768;30;20206;-80
2023/12/11 01:16:19;;;;;;;22.67;13.27;;;1.80;99.90;;;;;;9897448;30;20534;-79
2023/12/11 01:21:40;;;;;;;21.60;12.50;;;1.80;99.90;;;;;;9919794;30;20203;-80
2023/12/11 01:27:02;;;;;;;19.60;12.10;;;1.80;99.90;;;;;;9921173;30;20209;-80
2023/12/11 01:32:23;;;;;;;21.80;13.87;;;1.80;99.90;;;;;;9926924;29;20238;-79
2023/12/11 01:37:45;;;;;;;23.07;13.53;;;1.90;99.90;;;;;;9893316;30;20500;-79
2023/12/11 01:43:12;;;;;;;22.50;14.30;;;1.90;99.90;;;;;;9882916;30;20265;-79
2023/12/11 01:48:36;;;;;;;24.63;15.53;;;1.90;99.90;;;;;;9896988;30;20214;-79
2023/12/11 01:53:58;;;;;;;24.33;14.40;;;1.90;99.90;;;;;;9882977;30;20287;-80
2023/12/11 01:59:20;;;;;;;22.03;13.20;;;1.90;99.90;;;;;;9883571;30;20203;-80
2023/12/11 02:04:41;;;;;;;24.20;13.70;;;2.00;99.90;;;;;;9881469;30;20222;-78
2023/12/11 02:10:03;;;;;;;22.73;13.27;;;2.00;99.90;;;;;;9894507;30;20218;-78
2023/12/11 02:15:41;;;;;;;24.87;14.27;;;2.00;99.90;;;;;;9887983;30;20409;-79
2023/12/11 02:21:02;;;;;;;23.77;13.63;;;2.00;99.90;;;;;;9925236;30;20193;-79
2023/12/11 02:26:24;;;;;;;20.47;13.43;;;2.00;99.90;;;;;;9932183;30;20254;-78
2023/12/11 02:31:45;;;;;;;19.20;11.83;;;2.00;99.90;;;;;;9916893;30;20224;-78
2023/12/11 02:37:06;;;;;;;21.10;12.43;;;2.10;99.90;;;;;;9881542;30;20493;-78
2023/12/11 02:42:28;;;;;;;17.90;11.97;;;2.10;99.90;;;;;;9894256;30;20313;-79
2023/12/11 02:47:49;;;;;;;16.47;11.00;;;2.10;99.90;;;;;;9870154;30;20211;-78
2023/12/11 02:53:10;;;;;;;16.13;10.30;;;2.10;99.90;;;;;;9880674;30;20244;-77
2023/12/11 02:58:32;;;;;;;16.90;10.50;;;2.20;99.90;;;;;;9857397;30;20236;-78
2023/12/11 03:03:53;;;;;;;15.97;10.33;;;2.20;99.90;;;;;;9844016;30;20252;-78
2023/12/11 03:09:14;;;;;;;14.43;8.77;;;2.30;99.90;;;;;;9847008;30;20381;-78
2023/12/11 03:14:35;;;;;;;13.57;9.63;;;2.30;99.90;;;;;;9894095;30;20232;-78
2023/12/11 03:19:57;;;;;;;12.77;8.87;;;2.30;99.90;;;;;;9902404;30;20244;-79
2023/12/11 03:25:18;;;;;;;14.03;8.73;;;2.30;99.90;;;;;;9899407;29;20213;-79
2023/12/11 03:30:39;;;;;;;17.67;12.13;;;2.30;99.90;;;;;;9879926;30;20214;-78
2023/12/11 03:36:00;;;;;;;15.50;10.50;;;2.40;99.90;;;;;;9867254;30;20330;-78
2023/12/11 03:41:22;;;;;;;9.97;7.70;;;2.50;99.90;;;;;;9867029;30;20309;-79
2023/12/11 03:46:43;;;;;;;15.80;12.07;;;2.50;99.90;;;;;;9891717;30;20527;-79
2023/12/11 03:52:05;;;;;;;21.67;14.87;;;2.50;99.90;;;;;;9892949;30;20205;-78
2023/12/11 03:57:26;;;;;;;22.07;14.43;;;2.50;99.90;;;;;;9890564;30;20292;-79
2023/12/11 04:02:47;;;;;;;15.33;10.80;;;2.60;99.90;;;;;;9892527;30;20504;-79
2023/12/11 04:08:08;;;;;;;17.40;11.27;;;2.60;99.90;;;;;;9891334;30;20293;-78
2023/12/11 04:13:29;;;;;;;15.63;12.73;;;2.60;99.90;;;;;;9891164;30;20233;-78
2023/12/11 04:18:51;;;;;;;17.73;13.87;;;2.60;99.90;;;;;;9905054;30;20210;-80
2023/12/11 04:24:12;;;;;;;13.90;12.07;;;2.60;99.90;;;;;;9917085;29;20231;-79
2023/12/11 04:29:34;;;;;;;17.87;12.87;;;2.70;99.90;;;;;;9878212;30;20258;-79
2023/12/11 04:34:56;;;;;;;20.63;17.73;;;2.70;99.90;;;;;;9891065;30;20252;-79
2023/12/11 04:40:17;;;;;;;65.10;33.53;;;2.70;99.90;;;;;;9889883;30;20245;-80
2023/12/11 04:45:38;;;;;;;62.70;37.27;;;2.70;99.90;;;;;;9889891;30;20215;-81
2023/12/11 04:50:59;;;;;;;43.00;27.73;;;2.70;99.90;;;;;;9866068;30;20559;-79
2023/12/11 04:56:24;;;;;;;66.57;36.37;;;2.70;99.90;;;;;;9891649;30;20307;-79
2023/12/11 05:01:45;;;;;;;56.03;32.93;;;2.70;99.90;;;;;;9877373;30;20216;-80
2023/12/11 05:07:06;;;;;;;46.10;24.67;;;2.80;99.90;;;;;;9891240;30;20280;-79
2023/12/11 05:12:27;;;;;;;53.60;27.57;;;2.80;99.90;;;;;;9877606;30;20230;-79
2023/12/11 05:17:48;;;;;;;27.23;15.87;;;2.80;99.90;;;;;;9895983;30;20232;-81
2023/12/11 05:23:10;;;;;;;17.70;11.90;;;2.80;99.90;;;;;;9910114;30;20200;-79
2023/12/11 05:28:31;;;;;;;21.43;14.30;;;2.90;99.90;;;;;;9852926;30;20202;-80
2023/12/11 05:33:55;;;;;;;25.90;13.00;;;3.00;99.90;;;;;;9852419;30;20245;-80
2023/12/11 05:39:17;;;;;;;30.77;16.80;;;3.00;99.90;;;;;;9853028;30;20208;-80
2023/12/11 05:44:38;;;;;;;109.20;61.17;;;3.20;99.90;;;;;;9857252;30;20317;-79
2023/12/11 05:50:00;;;;;;;131.23;72.73;;;3.00;99.90;;;;;;9921681;29;20219;-78
2023/12/11 05:55:21;;;;;;;99.77;56.80;;;3.00;99.90;;;;;;9899007;30;20263;-79
2023/12/11 06:00:44;;;;;;;62.80;32.93;;;3.00;99.90;;;;;;9919848;30;20201;-78
2023/12/11 06:06:16;;;;;;;46.27;24.47;;;3.00;99.90;;;;;;9919856;30;20210;-80
2023/12/11 06:11:39;;;;;;;47.80;24.97;;;3.00;99.90;;;;;;9876852;30;20218;-80
2023/12/11 06:17:01;;;;;;;43.97;23.03;;;3.00;99.90;;;;;;9895531;30;20546;-80
2023/12/11 06:22:24;;;;;;;41.77;20.13;;;3.00;99.90;;;;;;9912128;30;20206;-80
2023/12/11 06:27:45;;;;;;;40.60;18.87;;;3.10;99.90;;;;;;9894848;30;20199;-81
2023/12/11 06:33:07;;;;;;;26.60;15.47;;;3.20;99.90;;;;;;9881722;30;20241;-79
2023/12/11 06:38:29;;;;;;;34.17;17.97;;;3.20;99.90;;;;;;9894448;30;20236;-81
2023/12/11 06:43:54;;;;;;;34.87;19.90;;;3.20;99.90;;;;;;9893776;30;20243;-79
2023/12/11 06:49:15;;;;;;;42.77;23.43;;;3.20;99.90;;;;;;9894496;30;20481;-82
2023/12/11 06:54:36;;;;;;;44.43;26.67;;;3.20;99.90;;;;;;9894100;30;20238;-80
2023/12/11 06:59:58;;;;;;;54.57;32.77;;;3.20;99.90;;;;;;9892617;30;20467;-80
2023/12/11 07:05:19;;;;;;;48.30;28.33;;;3.20;99.90;;;;;;9893503;30;20219;-81
2023/12/11 07:10:40;;;;;;;35.97;21.90;;;3.20;99.90;;;;;;9893528;30;20206;-81
2023/12/11 07:16:02;;;;;;;31.77;19.93;;;3.20;99.90;;;;;;9880272;30;20239;-81
2023/12/11 07:21:24;;;;;;;28.53;17.40;;;3.20;99.90;;;;;;9925638;30;20282;-81
2023/12/11 07:26:45;;;;;;;31.83;19.37;;;3.10;99.90;;;;;;9892116;30;20449;-81
2023/12/11 07:32:06;;;;;;;23.80;14.20;;;3.10;99.90;;;;;;9880003;30;20513;-80
2023/12/11 07:37:28;;;;;;;20.97;13.60;;;3.10;99.90;;;;;;9893390;30;20207;-80
2023/12/11 07:42:49;;;;;;;21.60;14.13;;;3.10;99.90;;;;;;9879106;30;20436;-80
2023/12/11 07:48:11;;;;;;;19.43;11.10;;;3.10;99.90;;;;;;9891159;30;20217;-81
2023/12/11 07:53:34;;;;;;;21.90;16.57;;;3.10;99.90;;;;;;9890497;30;20239;-80
2023/12/11 07:58:56;;;;;;;24.07;16.33;;;3.20;99.90;;;;;;9890969;30;20237;-81
2023/12/11 08:04:17;;;;;;;24.13;15.57;;;3.20;99.90;;;;;;9917830;30;20408;-81
2023/12/11 08:09:41;;;;;;;27.37;17.43;;;3.20;99.90;;;;;;10720661;24;20234;-83
2023/12/11 08:15:03;;;;;;;25.33;16.10;;;3.20;99.90;;;;;;9881074;29;20247;-82
2023/12/11 08:20:25;;;;;;;19.20;14.30;;;3.20;99.90;;;;;;9856412;30;20232;-80
2023/12/11 08:25:46;;;;;;;22.47;13.93;;;3.20;99.90;;;;;;9886625;30;20444;-81
2023/12/11 08:31:10;;;;;;;17.87;12.37;;;3.20;99.90;;;;;;9861270;30;20204;-80
2023/12/11 08:36:31;;;;;;;18.97;11.60;;;3.20;99.90;;;;;;9862727;30;20247;-80
2023/12/11 08:41:53;;;;;;;21.90;15.30;;;3.30;99.90;;;;;;9862400;30;20210;-81
2023/12/11 08:47:14;;;;;;;22.47;15.00;;;3.30;99.90;;;;;;9872954;30;20246;-80
2023/12/11 08:52:37;;;;;;;20.67;14.30;;;3.30;99.90;;;;;;9872161;30;20214;-80
2023/12/11 08:57:59;;;;;;;23.00;13.37;;;3.30;99.90;;;;;;9888787;30;20211;-80
2023/12/11 09:03:21;;;;;;;23.83;16.10;;;3.30;99.90;;;;;;9861670;30;20279;-81
2023/12/11 09:08:42;;;;;;;23.37;16.83;;;3.40;99.90;;;;;;9840136;30;20247;-83
2023/12/11 09:14:04;;;;;;;23.63;14.17;;;3.40;99.90;;;;;;9907671;30;20262;-85
2023/12/11 09:19:27;;;;;;;22.30;15.60;;;3.40;99.90;;;;;;9892740;30;20210;-82
2023/12/11 09:24:51;;;;;;;19.87;14.10;;;3.50;99.90;;;;;;9914779;30;20226;-81
2023/12/11 09:30:12;;;;;;;26.47;16.93;;;3.50;99.90;;;;;;9915993;30;20225;-81
2023/12/11 09:35:34;;;;;;;23.03;14.73;;;3.60;99.90;;;;;;9887429;30;20310;-82
2023/12/11 09:40:55;;;;;;;15.63;11.07;;;3.60;99.90;;;;;;9878640;30;20453;-80
2023/12/11 09:46:18;;;;;;;17.83;12.73;;;3.60;99.90;;;;;;9878814;30;20229;-82
2023/12/11 09:51:39;;;;;;;18.03;12.37;;;3.70;99.90;;;;;;9890628;30;20215;-81
2023/12/11 09:57:01;;;;;;;18.17;12.73;;;3.60;99.90;;;;;;9866620;30;20332;-82
2023/12/11 10:02:25;;;;;;;19.50;12.30;;;3.70;99.90;;;;;;9865421;30;20717;-84
2023/12/11 10:07:47;;;;;;;19.97;11.20;;;3.60;99.90;;;;;;9890333;30;20522;-80
2023/12/11 10:13:21;;;;;;;16.30;10.70;;;3.60;99.90;;;;;;9876671;30;20240;-81
2023/12/11 10:18:50;;;;;;;21.50;12.30;;;3.60;99.90;;;;;;9877660;30;20220;-80
2023/12/11 10:24:14;;;;;;;22.77;13.87;;;3.60;99.90;;;;;;9900716;30;20203;-80
2023/12/11 10:29:36;;;;;;;18.07;12.80;;;3.60;99.90;;;;;;9939292;29;20208;-80
2023/12/11 10:34:57;;;;;;;20.13;11.97;;;3.60;99.90;;;;;;9908572;29;20280;-80
2023/12/11 10:40:18;;;;;;;28.83;18.03;;;3.70;99.90;;;;;;9888753;30;20589;-79
2023/12/11 10:45:40;;;;;;;46.40;27.47;;;3.70;99.90;;;;;;9887167;30;20208;-80
2023/12/11 10:51:05;;;;;;;50.33;31.90;;;3.70;99.90;;;;;;9852712;30;20201;-80
2023/12/11 10:56:26;;;;;;;48.27;29.87;;;3.70;99.90;;;;;;9852753;30;20239;-81
2023/12/11 11:01:49;;;;;;;49.70;30.60;;;3.70;99.90;;;;;;9851405;30;20204;-80
2023/12/11 11:07:32;;;;;;;61.87;37.00;;;3.70;99.90;;;;;;9874620;30;20209;-82
2023/12/11 11:13:05;;;;;;;68.77;40.87;;;3.70;99.90;;;;;;9887502;30;20562;-82
2023/12/11 11:18:26;;;;;;;63.23;37.17;;;3.70;99.90;;;;;;9875977;30;20271;-80
2023/12/11 11:23:48;;;;;;;39.43;24.83;;;3.70;99.90;;;;;;9922323;30;20200;-81
2023/12/11 11:29:42;;;;;;;33.27;22.33;;;3.80;99.90;;;;;;9899242;30;20408;-81
2023/12/11 11:35:03;;;;;;;33.80;20.27;;;3.80;99.90;;;;;;9889600;29;20248;-80
2023/12/11 11:40:35;;;;;;;32.97;21.53;;;3.80;99.90;;;;;;9838562;30;20549;-81
2023/12/11 11:45:56;;;;;;;40.50;24.67;;;3.90;99.90;;;;;;9837169;30;20588;-80
2023/12/11 11:51:21;;;;;;;48.80;28.27;;;3.90;99.90;;;;;;9850002;30;20229;-83
2023/12/11 11:56:46;;;;;;;49.03;29.33;;;3.90;99.90;;;;;;9826554;30;20255;-80
2023/12/11 12:02:07;;;;;;;43.63;26.70;;;4.00;99.90;;;;;;9854682;30;20209;-85
2023/12/11 12:07:29;;;;;;;43.70;26.60;;;3.90;99.90;;;;;;9872968;30;20525;-80
2023/12/11 12:13:00;;;;;;;31.40;19.53;;;3.90;99.90;;;;;;9885579;30;20317;-80
2023/12/11 12:18:21;;;;;;;32.73;20.67;;;3.90;99.90;;;;;;9887750;30;20218;-81
2023/12/11 12:23:42;;;;;;;28.63;19.20;;;3.80;99.90;;;;;;9918245;30;20285;-79
2023/12/11 12:29:04;;;;;;;32.43;19.37;;;3.90;99.90;;;;;;9922248;29;20480;-82
2023/12/11 12:34:27;;;;;;;29.37;18.77;;;3.90;99.90;;;;;;9882663;30;20263;-80
2023/12/11 12:39:49;;;;;;;31.87;18.67;;;3.80;99.90;;;;;;9874459;30;20242;-80
2023/12/11 12:45:10;;;;;;;26.97;17.63;;;3.90;99.90;;;;;;9872440;30;20231;-80
2023/12/11 12:50:32;;;;;;;40.77;22.03;;;3.90;99.90;;;;;;9886124;30;20575;-79
2023/12/11 12:55:53;;;;;;;43.27;24.30;;;3.90;99.90;;;;;;9886030;30;20239;-80
2023/12/11 13:01:15;;;;;;;34.73;21.33;;;3.90;99.90;;;;;;9893688;30;20535;-79
2023/12/11 13:06:37;;;;;;;40.03;20.43;;;4.00;99.90;;;;;;9877965;30;20273;-79
2023/12/11 13:11:59;;;;;;;40.83;25.63;;;4.00;99.90;;;;;;9889556;30;20247;-78
2023/12/11 13:17:20;;;;;;;46.00;29.77;;;3.90;99.90;;;;;;9890518;30;20239;-78
2023/12/11 13:22:42;;;;;;;60.23;35.97;;;3.90;99.90;;;;;;9914389;30;20208;-82
2023/12/11 13:28:03;;;;;;;66.33;37.13;;;3.90;99.90;;;;;;9913324;30;20211;-78
2023/12/11 13:33:27;;;;;;;93.83;51.37;;;3.90;99.90;;;;;;9913679;29;20381;-78
2023/12/11 13:38:49;;;;;;;68.17;41.93;;;3.90;99.90;;;;;;9890161;30;20546;-78
2023/12/11 13:44:11;;;;;;;82.27;48.20;;;3.90;99.90;;;;;;9887972;30;20279;-78
2023/12/11 13:49:32;;;;;;;79.90;47.10;;;3.90;99.90;;;;;;9888545;30;20722;-78
2023/12/11 13:54:54;;;;;;;69.43;41.13;;;3.80;99.90;;;;;;9876917;30;20239;-79
2023/12/11 14:00:16;;;;;;;68.60;40.37;;;3.80;99.90;;;;;;9889932;30;20555;-83
2023/12/11 14:05:37;;;;;;;77.57;44.87;;;3.80;99.90;;;;;;9873743;30;20294;-78
2023/12/11 14:10:59;;;;;;;108.60;54.83;;;3.70;99.90;;;;;;9817099;30;1209205;-80
2023/12/11 14:16:21;;;;;;;94.57;48.17;;;3.70;99.90;;;;;;9878924;30;20230;-81
2023/12/11 14:21:42;;;;;;;72.87;37.07;;;3.70;99.90;;;;;;9894913;30;20203;-81
2023/12/11 14:27:04;;;;;;;46.77;26.70;;;3.70;99.90;;;;;;9926952;30;20212;-78
2023/12/11 14:32:25;;;;;;;39.73;21.77;;;3.60;99.90;;;;;;9919421;29;20224;-79
2023/12/11 14:37:46;;;;;;;63.03;30.87;;;3.70;99.90;;;;;;9828377;30;20244;-79
2023/12/11 14:43:08;;;;;;;74.07;40.10;;;3.70;99.90;;;;;;9883112;30;20204;-82
2023/12/11 14:48:30;;;;;;;78.97;42.47;;;3.60;99.90;;;;;;9876171;30;20223;-85
2023/12/11 14:53:53;;;;;;;74.30;40.57;;;3.60;99.90;;;;;;9876922;30;20228;-95
2023/12/11 14:59:16;;;;;;;70.97;36.80;;;3.60;99.90;;;;;;9876694;30;20211;-86
2023/12/11 15:04:37;;;;;;;64.00;33.10;;;3.60;99.90;;;;;;9886479;30;20218;-82
2023/12/11 15:09:59;;;;;;;52.00;28.27;;;3.60;99.90;;;;;;9882124;30;20255;-81
2023/12/11 15:15:20;;;;;;;41.63;23.73;;;3.60;99.90;;;;;;9876767;30;20245;-87
2023/12/11 15:20:41;;;;;;;39.03;21.53;;;3.50;99.90;;;;;;9885139;30;20198;-79
2023/12/11 15:26:03;;;;;;;46.13;23.33;;;3.50;99.90;;;;;;9899736;30;20512;-82
2023/12/11 15:31:25;;;;;;;46.33;23.67;;;3.40;99.90;;;;;;9899450;30;20467;-80
2023/12/11 15:36:47;;;;;;;53.90;26.90;;;3.40;99.90;;;;;;9827811;30;20293;-79
2023/12/11 15:42:08;;;;;;;45.90;24.90;;;3.40;99.90;;;;;;9846258;30;20295;-81
2023/12/11 15:47:29;;;;;;;56.83;30.97;;;3.30;99.90;;;;;;9862765;30;20205;-84
2023/12/11 15:52:51;;;;;;;94.70;49.30;;;3.30;99.90;;;;;;9863553;30;20388;-82
2023/12/11 15:58:13;;;;;;;102.87;57.13;;;3.40;99.90;;;;;;9887159;30;20602;-79
2023/12/11 16:03:37;;;;;;;121.63;62.37;;;3.40;99.90;;;;;;9860420;30;20476;-85
2023/12/11 16:08:58;;;;;;;111.00;59.47;;;3.30;91.40;;;;;;9885154;30;20253;-83
2023/12/11 16:14:20;;;;;;;114.80;55.60;;;3.40;99.90;;;;;;9889266;30;20237;-86
2023/12/11 16:19:41;;;;;;;100.27;51.20;;;3.30;94.60;;;;;;9881425;30;20204;-79
2023/12/11 16:25:03;;;;;;;67.07;35.63;;;3.30;99.90;;;;;;9927917;30;20204;-81
2023/12/11 16:30:23;;;;;;;38.80;21.37;;;3.30;99.90;;;;;;9911776;30;20243;-80
2023/12/11 16:35:45;;;;;;;34.30;18.20;;;3.40;99.90;;;;;;9841375;30;20251;-78
2023/12/11 16:41:07;;;;;;;37.50;20.20;;;3.40;99.90;;;;;;9854032;30;20208;-79
2023/12/11 16:46:28;;;;;;;37.73;19.73;;;3.40;99.90;;;;;;9853967;30;20205;-79
2023/12/11 16:51:49;;;;;;;32.13;17.37;;;3.30;99.90;;;;;;9853398;30;20209;-79
2023/12/11 16:57:10;;;;;;;23.57;13.73;;;3.40;99.90;;;;;;9853599;30;20313;-79
2023/12/11 17:02:32;;;;;;;20.00;11.33;;;3.30;99.90;;;;;;9877182;30;20211;-80
2023/12/11 17:07:53;;;;;;;23.57;13.63;;;3.30;99.90;;;;;;9888608;30;20293;-79
2023/12/11 17:13:14;;;;;;;33.07;17.30;;;3.30;99.90;;;;;;9853161;30;20286;-79
2023/12/11 17:18:36;;;;;;;41.83;22.67;;;3.30;99.90;;;;;;9867542;30;20282;-80
2023/12/11 17:23:58;;;;;;;43.63;24.63;;;3.20;80.10;;;;;;9921691;30;20432;-80
2023/12/11 17:29:20;;;;;;;32.20;18.53;;;3.20;57.90;;;;;;9921797;29;20520;-79
2023/12/11 17:34:41;;;;;;;29.00;17.10;;;3.10;28.30;;;;;;9893492;30;20239;-80
2023/12/11 17:40:05;;;;;;;27.33;13.47;;;3.10;77.40;;;;;;9890420;30;20208;-79
2023/12/11 17:45:26;;;;;;;23.20;13.07;;;3.10;45.00;;;;;;9907370;29;20203;-79
2023/12/11 17:50:48;;;;;;;27.30;15.37;;;3.00;27.90;;;;;;9896520;30;20517;-79
2023/12/11 17:56:11;;;;;;;23.17;13.37;;;3.00;17.30;;;;;;9895811;30;20579;-79
2023/12/11 18:01:32;;;;;;;31.30;16.10;;;3.00;37.30;;;;;;9881974;30;20233;-79
2023/12/11 18:06:54;;;;;;;36.40;16.40;;;3.00;46.60;;;;;;9882724;30;20265;-79
2023/12/11 18:12:15;;;;;;;33.37;16.60;;;3.00;43.60;;;;;;9895312;30;20326;-80
2023/12/11 18:17:37;;;;;;;28.20;14.83;;;3.00;74.10;;;;;;9882486;30;20238;-79
2023/12/11 18:23:00;;;;;;;27.40;12.87;;;3.00;67.30;;;;;;9909539;30;20257;-79
2023/12/11 18:28:22;;;;;;;42.70;20.63;;;3.10;85.50;;;;;;9944889;29;20285;-79
2023/12/11 18:33:42;;;;;;;61.23;26.13;;;3.00;64.40;;;;;;9893499;30;20505;-79
2023/12/11 18:39:04;;;;;;;38.87;18.73;;;3.00;90.20;;;;;;9882018;30;20210;-79
2023/12/11 18:44:26;;;;;;;24.10;12.50;;;3.00;57.00;;;;;;9894048;30;20342;-79
2023/12/11 18:49:47;;;;;;;17.97;10.60;;;3.10;40.20;;;;;;9895276;30;20377;-79
2023/12/11 18:55:09;;;;;;;13.30;8.33;;;3.00;64.00;;;;;;9892725;30;20230;-79
2023/12/11 19:00:30;;;;;;;21.83;12.60;;;3.00;7.00;;;;;;9880068;30;20241;-79
2023/12/11 19:05:52;;;;;;;21.63;11.70;;;3.00;1.00;;;;;;9893815;30;20215;-78
2023/12/11 19:11:14;;;;;;;18.57;10.60;;;2.90;1.00;;;;;;9874524;30;20287;-78
2023/12/11 19:16:38;;;;;;;14.07;8.80;;;2.80;1.00;;;;;;9880092;30;20283;-78
2023/12/11 19:21:59;;;;;;;13.97;7.37;;;2.80;1.00;;;;;;9925138;30;20279;-78
2023/12/11 19:27:24;;;;;;;14.20;8.73;;;2.70;1.00;;;;;;9929352;29;20206;-79
2023/12/11 19:32:46;;;;;;;16.60;9.97;;;2.70;1.00;;;;;;9852017;30;20226;-78
2023/12/11 19:38:08;;;;;;;12.20;8.10;;;2.70;1.00;;;;;;9867921;30;20478;-78
2023/12/11 19:43:29;;;;;;;17.60;11.47;;;2.60;1.00;;;;;;9867796;30;20219;-78
2023/12/11 19:48:50;;;;;;;29.80;17.70;;;2.60;1.00;;;;;;9854993;30;20229;-78
2023/12/11 19:54:12;;;;;;;24.83;15.57;;;2.60;1.00;;;;;;9856101;30;20237;-78
2023/12/11 19:59:33;;;;;;;34.43;18.60;;;2.50;1.00;;;;;;9862483;30;20221;-77
2023/12/11 20:04:54;;;;;;;36.47;20.40;;;2.40;1.00;;;;;;9890323;30;20269;-78
2023/12/11 20:10:16;;;;;;;47.67;21.47;;;2.40;1.00;;;;;;9887217;30;20249;-78
2023/12/11 20:15:37;;;;;;;45.37;23.67;;;2.40;1.00;;;;;;9890725;30;20235;-78
2023/12/11 20:20:59;;;;;;;56.80;30.10;;;2.40;1.00;;;;;;9904159;30;20458;-78
2023/12/11 20:26:22;;;;;;;59.30;30.20;;;2.30;1.00;;;;;;9928278;30;20209;-78
2023/12/11 20:31:43;;;;;;;45.80;24.30;;;2.30;1.00;;;;;;9877746;30;20383;-78
2023/12/11 20:37:05;;;;;;;52.17;29.17;;;2.30;1.00;;;;;;9856155;30;20488;-79
2023/12/11 20:42:26;;;;;;;48.43;24.10;;;2.20;1.00;;;;;;9841362;30;20289;-79
2023/12/11 20:47:48;;;;;;;51.80;25.50;;;2.20;1.00;;;;;;9881237;30;20203;-79
2023/12/11 20:53:09;;;;;;;53.27;29.00;;;2.20;1.00;;;;;;9877801;30;20219;-80
2023/12/11 20:58:30;;;;;;;54.77;30.93;;;2.20;1.00;;;;;;9877574;30;20494;-80
2023/12/11 21:03:52;;;;;;;55.67;30.60;;;2.20;1.00;;;;;;9889074;30;20210;-80
2023/12/11 21:09:15;;;;;;;54.57;28.33;;;2.20;1.00;;;;;;9888070;30;20557;-80
2023/12/11 21:14:38;;;;;;;56.13;30.17;;;2.20;1.00;;;;;;9885448;30;20225;-79
2023/12/11 21:19:59;;;;;;;71.50;35.83;;;2.10;1.00;;;;;;9898602;30;20281;-79
2023/12/11 21:25:20;;;;;;;80.03;40.90;;;2.10;1.00;;;;;;9934205;30;20201;-80
2023/12/11 21:30:41;;;;;;;85.97;43.13;;;2.00;1.00;;;;;;9934034;30;20216;-78
2023/12/11 21:36:03;;;;;;;84.00;39.97;;;2.10;1.00;;;;;;9864402;30;20231;-78
2023/12/11 21:41:25;;;;;;;69.90;35.07;;;2.00;1.00;;;;;;9859774;30;20200;-78
2023/12/11 21:46:47;;;;;;;61.70;32.77;;;2.00;1.00;;;;;;9877178;30;20207;-78
2023/12/11 21:52:09;;;;;;;47.43;25.03;;;2.00;1.00;;;;;;9896094;30;20504;-78
2023/12/11 21:57:30;;;;;;;36.33;19.73;;;2.10;1.00;;;;;;9895912;30;20226;-78
2023/12/11 22:02:51;;;;;;;27.43;16.10;;;2.10;1.00;;;;;;9894731;30;20202;-79
2023/12/11 22:08:13;;;;;;;25.10;14.83;;;2.20;1.00;;;;;;9883089;30;20215;-79
2023/12/11 22:13:34;;;;;;;31.63;17.43;;;2.20;1.00;;;;;;9884444;30;20210;-78
2023/12/11 22:18:55;;;;;;;36.43;19.20;;;2.30;1.00;;;;;;9894852;30;20525;-78
2023/12/11 22:24:18;;;;;;;40.13;21.20;;;2.30;1.00;;;;;;9931767;30;20219;-78
2023/12/11 22:29:40;;;;;;;30.67;18.03;;;2.30;1.00;;;;;;9919129;29;20526;-79
2023/12/11 22:35:02;;;;;;;28.03;16.23;;;2.40;1.00;;;;;;9873648;29;20313;-78
2023/12/11 22:40:23;;;;;;;29.30;15.83;;;2.40;1.00;;;;;;9858666;30;20233;-79
2023/12/11 22:45:44;;;;;;;25.30;15.07;;;2.40;1.00;;;;;;9858697;30;20279;-79
2023/12/11 22:51:06;;;;;;;26.20;14.93;;;2.40;1.00;;;;;;9857234;30;20474;-79
2023/12/11 22:56:27;;;;;;;24.07;15.00;;;2.40;1.00;;;;;;9857115;30;20231;-79
2023/12/11 23:01:50;;;;;;;25.87;15.90;;;2.40;1.00;;;;;;9865581;30;20242;-79
2023/12/11 23:07:11;;;;;;;26.67;14.87;;;2.40;1.00;;;;;;9893133;30;20511;-79
2023/12/11 23:12:32;;;;;;;30.47;17.03;;;2.40;1.00;;;;;;9867374;30;20244;-79
2023/12/11 23:17:54;;;;;;;32.87;17.63;;;2.50;1.00;;;;;;9880446;30;20236;-79
2023/12/11 23:23:15;;;;;;;45.47;21.67;;;2.50;1.00;;;;;;9921787;30;20202;-79
2023/12/11 23:28:36;;;;;;;45.80;24.40;;;2.50;1.00;;;;;;9904685;30;20214;-78
2023/12/11 23:33:57;;;;;;;44.23;24.20;;;2.50;1.00;;;;;;9869511;30;20214;-78
2023/12/11 23:39:19;;;;;;;46.10;24.70;;;2.50;1.00;;;;;;9855518;30;20235;-78
2023/12/11 23:44:40;;;;;;;33.13;17.73;;;2.50;1.00;;;;;;9854664;30;20238;-78
2023/12/11 23:50:02;;;;;;;23.10;13.67;;;2.60;1.00;;;;;;9855060;30;20488;-77
2023/12/11 23:55:23;;;;;;;18.03;11.37;;;2.50;1.00;;;;;;9854748;30;20239;-79
